sensor_id;sensor_type;location;lat;lon;timestamp;P1;durP1;ratioP1;P2;durP2;ratioP2
27893;SDS011;15240;50.812;4.792;2023-02-28T00:00:49;17.30;;;9.77;;
27893;SDS011;15240;50.812;4.792;2023-02-28T00:03:15;13.40;;;10.10;;
27893;SDS011;15240;50.812;4.792;2023-02-28T00:05:41;15.50;;;9.40;;
27893;SDS011;15240;50.812;4.792;2023-02-28T00:08:08;15.10;;;9.90;;
27893;SDS011;15240;50.812;4.792;2023-02-28T00:10:34;15.27;;;10.07;;
27893;SDS011;15240;50.812;4.792;2023-02-28T00:13:02;14.57;;;9.90;;
27893;SDS011;15240;50.812;4.792;2023-02-28T00:15:29;15.47;;;9.63;;
27893;SDS011;15240;50.812;4.792;2023-02-28T00:17:56;17.90;;;9.27;;
27893;SDS011;15240;50.812;4.792;2023-02-28T00:20:22;17.90;;;9.60;;
27893;SDS011;15240;50.812;4.792;2023-02-28T00:22:49;16.27;;;9.40;;
27893;SDS011;15240;50.812;4.792;2023-02-28T00:25:18;17.77;;;9.90;;
27893;SDS011;15240;50.812;4.792;2023-02-28T00:27:44;18.20;;;9.30;;
27893;SDS011;15240;50.812;4.792;2023-02-28T00:30:12;14.70;;;8.97;;
27893;SDS011;15240;50.812;4.792;2023-02-28T00:32:38;14.93;;;9.07;;
27893;SDS011;15240;50.812;4.792;2023-02-28T00:35:04;14.07;;;9.70;;
27893;SDS011;15240;50.812;4.792;2023-02-28T00:37:31;13.77;;;9.40;;
27893;SDS011;15240;50.812;4.792;2023-02-28T00:39:57;11.73;;;9.33;;
27893;SDS011;15240;50.812;4.792;2023-02-28T00:42:24;15.53;;;9.30;;
27893;SDS011;15240;50.812;4.792;2023-02-28T00:44:50;13.40;;;9.17;;
27893;SDS011;15240;50.812;4.792;2023-02-28T00:47:16;11.43;;;8.83;;
27893;SDS011;15240;50.812;4.792;2023-02-28T00:49:42;15.10;;;9.37;;
27893;SDS011;15240;50.812;4.792;2023-02-28T00:52:08;12.33;;;8.87;;
27893;SDS011;15240;50.812;4.792;2023-02-28T00:54:35;15.03;;;9.97;;
27893;SDS011;15240;50.812;4.792;2023-02-28T00:57:01;11.83;;;8.70;;
27893;SDS011;15240;50.812;4.792;2023-02-28T00:59:27;14.20;;;8.87;;
27893;SDS011;15240;50.812;4.792;2023-02-28T01:01:54;11.77;;;8.93;;
27893;SDS011;15240;50.812;4.792;2023-02-28T01:04:19;18.93;;;10.10;;
27893;SDS011;15240;50.812;4.792;2023-02-28T01:06:46;18.53;;;10.27;;
27893;SDS011;15240;50.812;4.792;2023-02-28T01:09:12;15.13;;;9.47;;
27893;SDS011;15240;50.812;4.792;2023-02-28T01:11:38;16.90;;;9.93;;
27893;SDS011;15240;50.812;4.792;2023-02-28T01:14:06;12.53;;;8.90;;
27893;SDS011;15240;50.812;4.792;2023-02-28T01:16:32;13.93;;;9.67;;
27893;SDS011;15240;50.812;4.792;2023-02-28T01:18:58;15.10;;;10.30;;
27893;SDS011;15240;50.812;4.792;2023-02-28T01:21:24;14.40;;;9.93;;
27893;SDS011;15240;50.812;4.792;2023-02-28T01:23:51;17.50;;;10.53;;
27893;SDS011;15240;50.812;4.792;2023-02-28T01:26:21;16.77;;;9.70;;
27893;SDS011;15240;50.812;4.792;2023-02-28T01:28:48;13.90;;;9.40;;
27893;SDS011;15240;50.812;4.792;2023-02-28T01:31:14;16.40;;;9.77;;
27893;SDS011;15240;50.812;4.792;2023-02-28T01:33:40;13.83;;;9.40;;
27893;SDS011;15240;50.812;4.792;2023-02-28T01:36:09;17.27;;;9.70;;
27893;SDS011;15240;50.812;4.792;2023-02-28T01:38:36;14.67;;;9.57;;
27893;SDS011;15240;50.812;4.792;2023-02-28T01:41:02;17.03;;;8.97;;
27893;SDS011;15240;50.812;4.792;2023-02-28T01:43:35;19.00;;;10.03;;
27893;SDS011;15240;50.812;4.792;2023-02-28T01:46:15;14.03;;;9.50;;
27893;SDS011;15240;50.812;4.792;2023-02-28T01:48:45;15.43;;;10.47;;
27893;SDS011;15240;50.812;4.792;2023-02-28T01:51:30;14.80;;;10.13;;
27893;SDS011;15240;50.812;4.792;2023-02-28T01:54:04;17.73;;;9.93;;
27893;SDS011;15240;50.812;4.792;2023-02-28T01:56:32;16.27;;;9.77;;
27893;SDS011;15240;50.812;4.792;2023-02-28T01:59:00;15.80;;;10.17;;
27893;SDS011;15240;50.812;4.792;2023-02-28T02:01:26;15.77;;;10.10;;
27893;SDS011;15240;50.812;4.792;2023-02-28T02:03:54;15.70;;;9.30;;
27893;SDS011;15240;50.812;4.792;2023-02-28T02:06:22;15.30;;;9.67;;
27893;SDS011;15240;50.812;4.792;2023-02-28T02:08:48;22.40;;;10.47;;
27893;SDS011;15240;50.812;4.792;2023-02-28T02:11:16;14.67;;;9.63;;
27893;SDS011;15240;50.812;4.792;2023-02-28T02:13:59;13.70;;;9.83;;
27893;SDS011;15240;50.812;4.792;2023-02-28T02:35:56;14.57;;;9.87;;
27893;SDS011;15240;50.812;4.792;2023-02-28T02:43:36;15.60;;;9.53;;
27893;SDS011;15240;50.812;4.792;2023-02-28T02:46:19;18.47;;;10.80;;
27893;SDS011;15240;50.812;4.792;2023-02-28T02:48:46;14.10;;;9.83;;
27893;SDS011;15240;50.812;4.792;2023-02-28T02:51:14;17.57;;;9.87;;
27893;SDS011;15240;50.812;4.792;2023-02-28T02:53:48;15.57;;;9.80;;
27893;SDS011;15240;50.812;4.792;2023-02-28T02:56:18;18.67;;;10.50;;
27893;SDS011;15240;50.812;4.792;2023-02-28T02:58:45;14.90;;;9.43;;
27893;SDS011;15240;50.812;4.792;2023-02-28T03:01:17;15.43;;;10.67;;
27893;SDS011;15240;50.812;4.792;2023-02-28T03:03:52;18.53;;;10.50;;
27893;SDS011;15240;50.812;4.792;2023-02-28T03:06:18;14.80;;;9.70;;
27893;SDS011;15240;50.812;4.792;2023-02-28T03:08:44;16.60;;;10.47;;
27893;SDS011;15240;50.812;4.792;2023-02-28T03:11:13;18.70;;;10.40;;
27893;SDS011;15240;50.812;4.792;2023-02-28T03:21:23;15.40;;;10.53;;
27893;SDS011;15240;50.812;4.792;2023-02-28T03:24:06;14.50;;;10.10;;
27893;SDS011;15240;50.812;4.792;2023-02-28T03:26:36;15.93;;;9.63;;
27893;SDS011;15240;50.812;4.792;2023-02-28T03:29:15;17.63;;;10.07;;
27893;SDS011;15240;50.812;4.792;2023-02-28T03:31:50;14.17;;;9.80;;
27893;SDS011;15240;50.812;4.792;2023-02-28T03:34:22;14.93;;;9.60;;
27893;SDS011;15240;50.812;4.792;2023-02-28T03:36:52;15.13;;;9.80;;
27893;SDS011;15240;50.812;4.792;2023-02-28T03:42:21;15.03;;;10.10;;
27893;SDS011;15240;50.812;4.792;2023-02-28T03:44:53;19.67;;;10.80;;
27893;SDS011;15240;50.812;4.792;2023-02-28T03:47:25;18.23;;;11.03;;
27893;SDS011;15240;50.812;4.792;2023-02-28T03:50:01;19.07;;;11.23;;
27893;SDS011;15240;50.812;4.792;2023-02-28T03:52:31;15.30;;;10.77;;
27893;SDS011;15240;50.812;4.792;2023-02-28T03:55:00;20.47;;;12.00;;
27893;SDS011;15240;50.812;4.792;2023-02-28T04:00:03;16.57;;;11.63;;
27893;SDS011;15240;50.812;4.792;2023-02-28T04:02:32;17.93;;;11.70;;
27893;SDS011;15240;50.812;4.792;2023-02-28T04:04:59;19.30;;;11.87;;
27893;SDS011;15240;50.812;4.792;2023-02-28T04:07:28;16.70;;;11.77;;
27893;SDS011;15240;50.812;4.792;2023-02-28T04:09:54;19.10;;;11.93;;
27893;SDS011;15240;50.812;4.792;2023-02-28T04:12:20;18.97;;;11.93;;
27893;SDS011;15240;50.812;4.792;2023-02-28T04:14:48;18.60;;;12.13;;
27893;SDS011;15240;50.812;4.792;2023-02-28T04:17:15;16.77;;;11.87;;
27893;SDS011;15240;50.812;4.792;2023-02-28T04:19:41;19.70;;;11.67;;
27893;SDS011;15240;50.812;4.792;2023-02-28T04:22:07;17.17;;;12.03;;
27893;SDS011;15240;50.812;4.792;2023-02-28T04:24:34;20.83;;;11.93;;
27893;SDS011;15240;50.812;4.792;2023-02-28T04:27:00;20.77;;;12.33;;
27893;SDS011;15240;50.812;4.792;2023-02-28T04:29:27;19.33;;;12.30;;
27893;SDS011;15240;50.812;4.792;2023-02-28T04:31:54;24.23;;;12.90;;
27893;SDS011;15240;50.812;4.792;2023-02-28T04:34:22;20.67;;;12.47;;
27893;SDS011;15240;50.812;4.792;2023-02-28T04:36:49;20.47;;;12.80;;
27893;SDS011;15240;50.812;4.792;2023-02-28T04:39:16;19.47;;;12.80;;
27893;SDS011;15240;50.812;4.792;2023-02-28T04:41:43;21.17;;;13.03;;
27893;SDS011;15240;50.812;4.792;2023-02-28T04:44:10;19.60;;;12.53;;
27893;SDS011;15240;50.812;4.792;2023-02-28T04:46:36;19.70;;;13.30;;
27893;SDS011;15240;50.812;4.792;2023-02-28T04:49:02;23.10;;;13.73;;
27893;SDS011;15240;50.812;4.792;2023-02-28T04:51:29;19.20;;;13.20;;
27893;SDS011;15240;50.812;4.792;2023-02-28T04:53:55;17.50;;;12.63;;
27893;SDS011;15240;50.812;4.792;2023-02-28T04:56:21;23.30;;;13.00;;
27893;SDS011;15240;50.812;4.792;2023-02-28T04:58:48;25.20;;;13.40;;
27893;SDS011;15240;50.812;4.792;2023-02-28T05:03:42;20.00;;;12.80;;
27893;SDS011;15240;50.812;4.792;2023-02-28T05:06:09;19.97;;;13.57;;
27893;SDS011;15240;50.812;4.792;2023-02-28T05:08:35;19.87;;;13.43;;
27893;SDS011;15240;50.812;4.792;2023-02-28T05:11:01;21.50;;;13.57;;
27893;SDS011;15240;50.812;4.792;2023-02-28T05:13:27;20.60;;;13.53;;
27893;SDS011;15240;50.812;4.792;2023-02-28T05:15:53;22.00;;;14.30;;
27893;SDS011;15240;50.812;4.792;2023-02-28T05:18:19;21.67;;;13.67;;
27893;SDS011;15240;50.812;4.792;2023-02-28T05:20:45;23.03;;;13.90;;
27893;SDS011;15240;50.812;4.792;2023-02-28T05:23:12;22.97;;;14.47;;
27893;SDS011;15240;50.812;4.792;2023-02-28T05:25:39;21.07;;;14.30;;
27893;SDS011;15240;50.812;4.792;2023-02-28T05:28:05;22.87;;;15.13;;
27893;SDS011;15240;50.812;4.792;2023-02-28T05:30:31;22.27;;;14.20;;
27893;SDS011;15240;50.812;4.792;2023-02-28T05:32:57;24.03;;;15.17;;
27893;SDS011;15240;50.812;4.792;2023-02-28T05:35:24;25.10;;;16.10;;
27893;SDS011;15240;50.812;4.792;2023-02-28T05:37:50;33.30;;;15.90;;
27893;SDS011;15240;50.812;4.792;2023-02-28T05:40:17;27.80;;;16.43;;
27893;SDS011;15240;50.812;4.792;2023-02-28T05:42:44;24.73;;;15.37;;
27893;SDS011;15240;50.812;4.792;2023-02-28T05:45:10;20.37;;;15.07;;
27893;SDS011;15240;50.812;4.792;2023-02-28T05:47:36;24.83;;;15.77;;
27893;SDS011;15240;50.812;4.792;2023-02-28T05:50:03;23.97;;;15.90;;
27893;SDS011;15240;50.812;4.792;2023-02-28T05:52:29;24.57;;;15.37;;
27893;SDS011;15240;50.812;4.792;2023-02-28T05:54:55;25.87;;;16.03;;
27893;SDS011;15240;50.812;4.792;2023-02-28T05:57:22;28.07;;;16.77;;
27893;SDS011;15240;50.812;4.792;2023-02-28T05:59:48;24.70;;;16.03;;
27893;SDS011;15240;50.812;4.792;2023-02-28T06:02:15;25.17;;;15.30;;
27893;SDS011;15240;50.812;4.792;2023-02-28T06:04:42;27.23;;;16.13;;
27893;SDS011;15240;50.812;4.792;2023-02-28T06:07:09;22.80;;;15.73;;
27893;SDS011;15240;50.812;4.792;2023-02-28T06:09:35;22.47;;;15.00;;
27893;SDS011;15240;50.812;4.792;2023-02-28T06:12:02;24.93;;;16.27;;
27893;SDS011;15240;50.812;4.792;2023-02-28T06:14:30;26.17;;;17.00;;
27893;SDS011;15240;50.812;4.792;2023-02-28T06:16:57;28.47;;;15.87;;
27893;SDS011;15240;50.812;4.792;2023-02-28T06:19:23;28.13;;;17.77;;
27893;SDS011;15240;50.812;4.792;2023-02-28T06:21:50;26.73;;;18.50;;
27893;SDS011;15240;50.812;4.792;2023-02-28T06:24:18;50.60;;;29.27;;
27893;SDS011;15240;50.812;4.792;2023-02-28T06:26:44;30.40;;;19.50;;
27893;SDS011;15240;50.812;4.792;2023-02-28T06:29:10;26.83;;;18.07;;
27893;SDS011;15240;50.812;4.792;2023-02-28T06:31:36;34.90;;;18.73;;
27893;SDS011;15240;50.812;4.792;2023-02-28T06:34:03;28.13;;;18.70;;
27893;SDS011;15240;50.812;4.792;2023-02-28T06:36:29;30.57;;;19.67;;
27893;SDS011;15240;50.812;4.792;2023-02-28T06:38:55;32.20;;;19.43;;
27893;SDS011;15240;50.812;4.792;2023-02-28T06:41:23;33.10;;;19.87;;
27893;SDS011;15240;50.812;4.792;2023-02-28T06:43:50;30.40;;;17.97;;
27893;SDS011;15240;50.812;4.792;2023-02-28T06:46:16;28.37;;;18.53;;
27893;SDS011;15240;50.812;4.792;2023-02-28T06:48:43;29.20;;;18.17;;
27893;SDS011;15240;50.812;4.792;2023-02-28T06:51:10;36.33;;;19.87;;
27893;SDS011;15240;50.812;4.792;2023-02-28T06:53:38;31.20;;;19.17;;
27893;SDS011;15240;50.812;4.792;2023-02-28T06:56:05;29.17;;;18.57;;
27893;SDS011;15240;50.812;4.792;2023-02-28T06:58:32;30.87;;;17.97;;
27893;SDS011;15240;50.812;4.792;2023-02-28T07:00:58;28.20;;;18.53;;
27893;SDS011;15240;50.812;4.792;2023-02-28T07:03:24;28.03;;;18.70;;
27893;SDS011;15240;50.812;4.792;2023-02-28T07:05:50;27.37;;;17.00;;
27893;SDS011;15240;50.812;4.792;2023-02-28T07:08:16;39.50;;;24.60;;
27893;SDS011;15240;50.812;4.792;2023-02-28T07:10:42;32.57;;;18.93;;
27893;SDS011;15240;50.812;4.792;2023-02-28T07:13:09;26.60;;;16.63;;
27893;SDS011;15240;50.812;4.792;2023-02-28T07:15:35;23.33;;;14.60;;
27893;SDS011;15240;50.812;4.792;2023-02-28T07:18:01;24.17;;;16.80;;
27893;SDS011;15240;50.812;4.792;2023-02-28T07:20:28;21.53;;;13.80;;
27893;SDS011;15240;50.812;4.792;2023-02-28T07:22:54;20.57;;;12.77;;
27893;SDS011;15240;50.812;4.792;2023-02-28T07:25:27;21.40;;;13.07;;
27893;SDS011;15240;50.812;4.792;2023-02-28T07:27:54;19.23;;;12.33;;
27893;SDS011;15240;50.812;4.792;2023-02-28T07:30:21;16.77;;;12.30;;
27893;SDS011;15240;50.812;4.792;2023-02-28T07:32:47;18.53;;;11.80;;
27893;SDS011;15240;50.812;4.792;2023-02-28T07:35:13;20.13;;;11.30;;
27893;SDS011;15240;50.812;4.792;2023-02-28T07:37:40;15.47;;;10.60;;
27893;SDS011;15240;50.812;4.792;2023-02-28T07:40:07;16.47;;;11.30;;
27893;SDS011;15240;50.812;4.792;2023-02-28T07:42:36;18.70;;;10.30;;
27893;SDS011;15240;50.812;4.792;2023-02-28T07:45:02;16.20;;;10.80;;
27893;SDS011;15240;50.812;4.792;2023-02-28T07:47:31;15.77;;;10.20;;
27893;SDS011;15240;50.812;4.792;2023-02-28T07:49:57;15.97;;;10.10;;
27893;SDS011;15240;50.812;4.792;2023-02-28T07:52:23;13.00;;;9.43;;
27893;SDS011;15240;50.812;4.792;2023-02-28T07:54:50;14.30;;;9.97;;
27893;SDS011;15240;50.812;4.792;2023-02-28T07:57:16;16.53;;;10.20;;
27893;SDS011;15240;50.812;4.792;2023-02-28T07:59:43;16.00;;;9.70;;
27893;SDS011;15240;50.812;4.792;2023-02-28T08:02:13;19.27;;;10.07;;
27893;SDS011;15240;50.812;4.792;2023-02-28T08:04:39;12.80;;;9.57;;
27893;SDS011;15240;50.812;4.792;2023-02-28T08:07:05;13.77;;;9.50;;
27893;SDS011;15240;50.812;4.792;2023-02-28T08:09:32;13.63;;;9.23;;
27893;SDS011;15240;50.812;4.792;2023-02-28T08:11:59;11.90;;;8.43;;
27893;SDS011;15240;50.812;4.792;2023-02-28T08:14:25;12.50;;;8.50;;
27893;SDS011;15240;50.812;4.792;2023-02-28T08:16:52;12.90;;;8.70;;
27893;SDS011;15240;50.812;4.792;2023-02-28T08:19:18;12.60;;;8.13;;
27893;SDS011;15240;50.812;4.792;2023-02-28T08:21:44;12.00;;;8.63;;
27893;SDS011;15240;50.812;4.792;2023-02-28T08:24:10;11.20;;;7.40;;
27893;SDS011;15240;50.812;4.792;2023-02-28T08:26:36;11.23;;;7.70;;
27893;SDS011;15240;50.812;4.792;2023-02-28T08:29:02;11.13;;;8.07;;
27893;SDS011;15240;50.812;4.792;2023-02-28T08:31:28;11.17;;;7.40;;
27893;SDS011;15240;50.812;4.792;2023-02-28T08:33:54;11.10;;;7.70;;
27893;SDS011;15240;50.812;4.792;2023-02-28T08:36:23;10.43;;;7.97;;
27893;SDS011;15240;50.812;4.792;2023-02-28T08:38:49;12.07;;;7.50;;
27893;SDS011;15240;50.812;4.792;2023-02-28T08:41:15;10.87;;;7.20;;
27893;SDS011;15240;50.812;4.792;2023-02-28T08:43:42;10.30;;;7.77;;
27893;SDS011;15240;50.812;4.792;2023-02-28T08:46:10;10.50;;;7.43;;
27893;SDS011;15240;50.812;4.792;2023-02-28T08:48:37;12.50;;;8.13;;
27893;SDS011;15240;50.812;4.792;2023-02-28T08:51:21;11.10;;;7.20;;
27893;SDS011;15240;50.812;4.792;2023-02-28T08:53:51;10.43;;;7.40;;
27893;SDS011;15240;50.812;4.792;2023-02-28T08:56:18;10.07;;;7.27;;
27893;SDS011;15240;50.812;4.792;2023-02-28T08:58:45;10.47;;;7.37;;
27893;SDS011;15240;50.812;4.792;2023-02-28T09:01:12;10.13;;;7.23;;
27893;SDS011;15240;50.812;4.792;2023-02-28T09:03:38;10.20;;;7.30;;
27893;SDS011;15240;50.812;4.792;2023-02-28T09:06:06;11.93;;;7.20;;
27893;SDS011;15240;50.812;4.792;2023-02-28T09:08:32;9.63;;;7.23;;
27893;SDS011;15240;50.812;4.792;2023-02-28T09:10:58;8.83;;;6.83;;
27893;SDS011;15240;50.812;4.792;2023-02-28T09:13:25;10.63;;;6.70;;
27893;SDS011;15240;50.812;4.792;2023-02-28T09:15:52;10.73;;;7.00;;
27893;SDS011;15240;50.812;4.792;2023-02-28T09:18:18;10.43;;;6.57;;
27893;SDS011;15240;50.812;4.792;2023-02-28T09:20:44;9.63;;;6.87;;
27893;SDS011;15240;50.812;4.792;2023-02-28T09:23:11;8.40;;;6.23;;
27893;SDS011;15240;50.812;4.792;2023-02-28T09:25:44;9.43;;;6.30;;
27893;SDS011;15240;50.812;4.792;2023-02-28T09:28:10;8.67;;;5.90;;
27893;SDS011;15240;50.812;4.792;2023-02-28T09:30:36;7.57;;;5.63;;
27893;SDS011;15240;50.812;4.792;2023-02-28T09:33:03;8.00;;;6.30;;
27893;SDS011;15240;50.812;4.792;2023-02-28T09:35:29;10.50;;;6.67;;
27893;SDS011;15240;50.812;4.792;2023-02-28T09:37:55;9.73;;;6.10;;
27893;SDS011;15240;50.812;4.792;2023-02-28T09:40:24;9.60;;;6.30;;
27893;SDS011;15240;50.812;4.792;2023-02-28T09:42:51;9.73;;;6.27;;
27893;SDS011;15240;50.812;4.792;2023-02-28T09:45:35;8.53;;;6.03;;
27893;SDS011;15240;50.812;4.792;2023-02-28T09:48:24;7.37;;;5.50;;
27893;SDS011;15240;50.812;4.792;2023-02-28T09:50:54;8.07;;;5.73;;
27893;SDS011;15240;50.812;4.792;2023-02-28T09:53:23;7.43;;;5.70;;
27893;SDS011;15240;50.812;4.792;2023-02-28T09:55:53;9.13;;;6.07;;
27893;SDS011;15240;50.812;4.792;2023-02-28T10:03:54;8.37;;;5.10;;
27893;SDS011;15240;50.812;4.792;2023-02-28T10:06:22;9.00;;;5.57;;
27893;SDS011;15240;50.812;4.792;2023-02-28T10:08:54;6.93;;;5.33;;
27893;SDS011;15240;50.812;4.792;2023-02-28T10:11:22;6.53;;;4.90;;
27893;SDS011;15240;50.812;4.792;2023-02-28T10:13:51;9.40;;;5.00;;
27893;SDS011;15240;50.812;4.792;2023-02-28T10:16:28;7.00;;;5.17;;
27893;SDS011;15240;50.812;4.792;2023-02-28T10:18:59;7.07;;;4.67;;
27893;SDS011;15240;50.812;4.792;2023-02-28T10:21:29;6.87;;;4.80;;
27893;SDS011;15240;50.812;4.792;2023-02-28T10:24:04;8.07;;;5.60;;
27893;SDS011;15240;50.812;4.792;2023-02-28T10:26:31;7.30;;;5.07;;
27893;SDS011;15240;50.812;4.792;2023-02-28T10:28:57;7.53;;;4.80;;
27893;SDS011;15240;50.812;4.792;2023-02-28T10:31:23;7.40;;;5.17;;
27893;SDS011;15240;50.812;4.792;2023-02-28T10:33:49;7.53;;;4.77;;
27893;SDS011;15240;50.812;4.792;2023-02-28T10:36:17;7.90;;;5.17;;
27893;SDS011;15240;50.812;4.792;2023-02-28T10:38:44;7.27;;;5.07;;
27893;SDS011;15240;50.812;4.792;2023-02-28T10:41:13;7.70;;;5.20;;
27893;SDS011;15240;50.812;4.792;2023-02-28T10:43:40;7.43;;;5.47;;
27893;SDS011;15240;50.812;4.792;2023-02-28T10:51:03;5.73;;;5.00;;
27893;SDS011;15240;50.812;4.792;2023-02-28T10:53:31;6.30;;;4.67;;
27893;SDS011;15240;50.812;4.792;2023-02-28T10:56:01;5.93;;;4.60;;
27893;SDS011;15240;50.812;4.792;2023-02-28T10:58:30;5.90;;;3.57;;
27893;SDS011;15240;50.812;4.792;2023-02-28T11:00:57;5.23;;;4.00;;
27893;SDS011;15240;50.812;4.792;2023-02-28T11:05:55;7.83;;;3.80;;
27893;SDS011;15240;50.812;4.792;2023-02-28T11:08:22;4.50;;;3.60;;
27893;SDS011;15240;50.812;4.792;2023-02-28T11:10:58;6.17;;;4.17;;
27893;SDS011;15240;50.812;4.792;2023-02-28T11:13:35;5.07;;;3.70;;
27893;SDS011;15240;50.812;4.792;2023-02-28T11:16:10;5.83;;;3.97;;
27893;SDS011;15240;50.812;4.792;2023-02-28T11:21:09;4.70;;;3.53;;
27893;SDS011;15240;50.812;4.792;2023-02-28T11:23:36;5.97;;;3.70;;
27893;SDS011;15240;50.812;4.792;2023-02-28T11:26:06;4.70;;;3.70;;
27893;SDS011;15240;50.812;4.792;2023-02-28T11:28:36;5.10;;;3.97;;
27893;SDS011;15240;50.812;4.792;2023-02-28T11:33:51;7.50;;;4.60;;
27893;SDS011;15240;50.812;4.792;2023-02-28T11:38:50;5.30;;;4.13;;
27893;SDS011;15240;50.812;4.792;2023-02-28T11:52:00;5.30;;;4.27;;
27893;SDS011;15240;50.812;4.792;2023-02-28T11:54:30;5.93;;;4.57;;
27893;SDS011;15240;50.812;4.792;2023-02-28T12:02:29;4.90;;;4.00;;
27893;SDS011;15240;50.812;4.792;2023-02-28T12:22:29;7.47;;;4.60;;
27893;SDS011;15240;50.812;4.792;2023-02-28T12:27:31;4.90;;;4.33;;
27893;SDS011;15240;50.812;4.792;2023-02-28T12:30:01;6.43;;;4.13;;
27893;SDS011;15240;50.812;4.792;2023-02-28T12:32:34;4.83;;;4.07;;
27893;SDS011;15240;50.812;4.792;2023-02-28T12:35:04;5.50;;;3.83;;
27893;SDS011;15240;50.812;4.792;2023-02-28T12:37:37;5.80;;;4.27;;
27893;SDS011;15240;50.812;4.792;2023-02-28T12:40:06;5.17;;;4.20;;
27893;SDS011;15240;50.812;4.792;2023-02-28T12:42:55;5.53;;;3.80;;
27893;SDS011;15240;50.812;4.792;2023-02-28T12:45:23;5.50;;;4.23;;
27893;SDS011;15240;50.812;4.792;2023-02-28T12:47:51;7.83;;;4.17;;
27893;SDS011;15240;50.812;4.792;2023-02-28T12:50:18;10.37;;;4.70;;
27893;SDS011;15240;50.812;4.792;2023-02-28T12:52:54;6.10;;;3.90;;
27893;SDS011;15240;50.812;4.792;2023-02-28T12:55:28;6.13;;;4.13;;
27893;SDS011;15240;50.812;4.792;2023-02-28T13:00:40;4.80;;;4.30;;
27893;SDS011;15240;50.812;4.792;2023-02-28T13:03:22;5.53;;;4.33;;
27893;SDS011;15240;50.812;4.792;2023-02-28T13:06:13;7.73;;;5.30;;
27893;SDS011;15240;50.812;4.792;2023-02-28T13:14:36;4.73;;;4.00;;
27893;SDS011;15240;50.812;4.792;2023-02-28T13:19:41;6.63;;;4.70;;
27893;SDS011;15240;50.812;4.792;2023-02-28T13:22:19;5.57;;;3.93;;
27893;SDS011;15240;50.812;4.792;2023-02-28T13:27:19;7.13;;;4.43;;
27893;SDS011;15240;50.812;4.792;2023-02-28T13:29:49;4.13;;;3.73;;
27893;SDS011;15240;50.812;4.792;2023-02-28T13:42:22;5.27;;;4.00;;
27893;SDS011;15240;50.812;4.792;2023-02-28T13:48:14;5.87;;;4.50;;
27893;SDS011;15240;50.812;4.792;2023-02-28T13:50:21;6.73;;;4.47;;
27893;SDS011;15240;50.812;4.792;2023-02-28T14:05:23;5.13;;;3.93;;
27893;SDS011;15240;50.812;4.792;2023-02-28T14:07:55;5.60;;;4.50;;
27893;SDS011;15240;50.812;4.792;2023-02-28T14:10:23;8.43;;;4.87;;
27893;SDS011;15240;50.812;4.792;2023-02-28T14:12:57;6.33;;;4.73;;
27893;SDS011;15240;50.812;4.792;2023-02-28T14:15:35;7.80;;;5.17;;
27893;SDS011;15240;50.812;4.792;2023-02-28T14:18:03;7.03;;;5.23;;
27893;SDS011;15240;50.812;4.792;2023-02-28T14:20:31;6.97;;;4.90;;
27893;SDS011;15240;50.812;4.792;2023-02-28T14:23:14;17.67;;;7.70;;
27893;SDS011;15240;50.812;4.792;2023-02-28T14:26:02;6.30;;;4.80;;
27893;SDS011;15240;50.812;4.792;2023-02-28T14:28:44;6.37;;;4.90;;
27893;SDS011;15240;50.812;4.792;2023-02-28T14:31:13;7.97;;;5.37;;
27893;SDS011;15240;50.812;4.792;2023-02-28T14:36:32;10.03;;;5.60;;
27893;SDS011;15240;50.812;4.792;2023-02-28T14:41:44;6.70;;;5.33;;
27893;SDS011;15240;50.812;4.792;2023-02-28T14:44:19;7.73;;;5.50;;
27893;SDS011;15240;50.812;4.792;2023-02-28T14:46:46;7.17;;;5.50;;
27893;SDS011;15240;50.812;4.792;2023-02-28T14:49:17;7.37;;;5.07;;
27893;SDS011;15240;50.812;4.792;2023-02-28T14:51:43;10.20;;;5.47;;
27893;SDS011;15240;50.812;4.792;2023-02-28T14:54:13;8.10;;;5.63;;
27893;SDS011;15240;50.812;4.792;2023-02-28T14:56:40;7.13;;;5.33;;
27893;SDS011;15240;50.812;4.792;2023-02-28T15:01:51;7.07;;;5.10;;
27893;SDS011;15240;50.812;4.792;2023-02-28T15:04:26;6.50;;;5.37;;
27893;SDS011;15240;50.812;4.792;2023-02-28T15:07:08;7.40;;;5.80;;
27893;SDS011;15240;50.812;4.792;2023-02-28T15:09:34;8.80;;;5.73;;
27893;SDS011;15240;50.812;4.792;2023-02-28T15:12:00;7.23;;;5.30;;
27893;SDS011;15240;50.812;4.792;2023-02-28T15:14:27;7.43;;;5.70;;
27893;SDS011;15240;50.812;4.792;2023-02-28T15:16:57;7.60;;;5.53;;
27893;SDS011;15240;50.812;4.792;2023-02-28T15:19:29;6.83;;;5.17;;
27893;SDS011;15240;50.812;4.792;2023-02-28T15:22:03;7.37;;;4.97;;
27893;SDS011;15240;50.812;4.792;2023-02-28T15:24:32;8.23;;;4.90;;
27893;SDS011;15240;50.812;4.792;2023-02-28T15:27:03;8.43;;;5.50;;
27893;SDS011;15240;50.812;4.792;2023-02-28T15:29:31;5.60;;;4.50;;
27893;SDS011;15240;50.812;4.792;2023-02-28T15:32:04;9.20;;;5.40;;
27893;SDS011;15240;50.812;4.792;2023-02-28T15:34:37;6.97;;;5.17;;
27893;SDS011;15240;50.812;4.792;2023-02-28T15:39:49;6.77;;;5.30;;
27893;SDS011;15240;50.812;4.792;2023-02-28T15:42:19;8.80;;;5.53;;
27893;SDS011;15240;50.812;4.792;2023-02-28T15:44:46;6.67;;;5.60;;
27893;SDS011;15240;50.812;4.792;2023-02-28T15:47:22;7.93;;;5.37;;
27893;SDS011;15240;50.812;4.792;2023-02-28T15:49:50;7.73;;;5.57;;
27893;SDS011;15240;50.812;4.792;2023-02-28T15:52:18;6.90;;;5.47;;
27893;SDS011;15240;50.812;4.792;2023-02-28T15:54:45;8.17;;;4.93;;
27893;SDS011;15240;50.812;4.792;2023-02-28T15:57:17;6.73;;;5.37;;
27893;SDS011;15240;50.812;4.792;2023-02-28T15:59:48;7.13;;;5.70;;
27893;SDS011;15240;50.812;4.792;2023-02-28T16:02:19;6.60;;;5.23;;
27893;SDS011;15240;50.812;4.792;2023-02-28T16:05:12;8.80;;;5.50;;
27893;SDS011;15240;50.812;4.792;2023-02-28T16:07:43;8.23;;;4.90;;
27893;SDS011;15240;50.812;4.792;2023-02-28T16:10:10;7.67;;;5.33;;
27893;SDS011;15240;50.812;4.792;2023-02-28T16:12:37;16.13;;;6.37;;
27893;SDS011;15240;50.812;4.792;2023-02-28T16:15:08;8.07;;;5.60;;
27893;SDS011;15240;50.812;4.792;2023-02-28T16:17:37;6.30;;;5.03;;
27893;SDS011;15240;50.812;4.792;2023-02-28T16:20:25;8.20;;;5.20;;
27893;SDS011;15240;50.812;4.792;2023-02-28T16:22:50;7.43;;;5.50;;
27893;SDS011;15240;50.812;4.792;2023-02-28T16:25:17;9.70;;;5.23;;
27893;SDS011;15240;50.812;4.792;2023-02-28T16:27:45;8.13;;;4.90;;
27893;SDS011;15240;50.812;4.792;2023-02-28T16:30:21;8.30;;;5.30;;
27893;SDS011;15240;50.812;4.792;2023-02-28T16:32:48;7.27;;;5.10;;
27893;SDS011;15240;50.812;4.792;2023-02-28T16:35:14;8.03;;;5.10;;
27893;SDS011;15240;50.812;4.792;2023-02-28T16:37:41;9.23;;;5.27;;
27893;SDS011;15240;50.812;4.792;2023-02-28T16:40:09;7.47;;;5.30;;
27893;SDS011;15240;50.812;4.792;2023-02-28T16:42:39;6.97;;;4.97;;
27893;SDS011;15240;50.812;4.792;2023-02-28T16:45:08;9.03;;;5.30;;
27893;SDS011;15240;50.812;4.792;2023-02-28T16:47:37;8.60;;;5.40;;
27893;SDS011;15240;50.812;4.792;2023-02-28T16:50:08;6.93;;;5.03;;
27893;SDS011;15240;50.812;4.792;2023-02-28T16:52:35;6.43;;;5.40;;
27893;SDS011;15240;50.812;4.792;2023-02-28T16:55:01;6.23;;;4.93;;
27893;SDS011;15240;50.812;4.792;2023-02-28T16:57:27;8.70;;;5.33;;
27893;SDS011;15240;50.812;4.792;2023-02-28T16:59:53;6.57;;;5.20;;
27893;SDS011;15240;50.812;4.792;2023-02-28T17:02:19;8.83;;;5.40;;
27893;SDS011;15240;50.812;4.792;2023-02-28T17:04:45;6.07;;;5.10;;
27893;SDS011;15240;50.812;4.792;2023-02-28T17:07:12;8.03;;;5.53;;
27893;SDS011;15240;50.812;4.792;2023-02-28T17:09:39;8.97;;;5.83;;
27893;SDS011;15240;50.812;4.792;2023-02-28T17:12:05;7.33;;;5.60;;